EBAW/ANR METAR and TAF weather

Enter ICAO airport designator
Station Type Date Time Source
EBAW METAR 2022/05/26 05:50 UTC NOAA

EBAW 260550Z 23009KT 200V260 9999 BKN011 14/11 Q1020 BECMG FEW012


Station Type Date Time Source
EBAW Decoded METAR 2022/05/26 05:50 UTC NOAA

Antwerpen / Deurne, Belgium (EBAW) 51-12N 004-28E 14M
May 26, 2022 - 01:50 AM EDT / 2022.05.26 0550 UTC
Wind: from the SW (230 degrees) at 10 MPH (9 KT) (direction variable):0
Visibility: greater than 7 mile(s):0
Sky conditions: mostly cloudy
Temperature: 57 F (14 C)
Dew Point: 51 F (11 C)
Relative Humidity: 82%
Pressure (altimeter): 30.12 in. Hg (1020 hPa)
ob: EBAW 260550Z 23009KT 200V260 9999 BKN011 14/11 Q1020 BECMG FEW012
cycle: 6

Station Type Date Time Source
EBAW TAF 2022/04/17 12:27 UTC NOAA

TAF TAF EBAW 171110Z 1712/1724 10007KT CAVOK

Example: see airport list